Time;durP1;ratioP1;P1;durP2;ratioP2;P2;SDS_P1;SDS_P2;PMS_P1;PMS_P2;Temp;Humidity;BMP_temperature;BMP_pressure;BME280_temperature;BME280_humidity;BME280_pressure;Samples;Min_cycle;Max_cycle;Signal;HPM_P1;HPM_P2
2023/06/24 00:08:09;;;;;;;2.38;2.17;;;;;;;20.98;74.71;102131.09;20950817;28;20048;-71
2023/06/24 00:18:11;;;;;;;2.33;2.13;;;;;;;20.97;74.79;102136.63;20936712;28;20127;-71
2023/06/24 00:28:13;;;;;;;2.97;2.78;;;;;;;20.95;74.72;102134.06;20938362;28;20118;-71
2023/06/24 00:38:15;;;;;;;3.47;2.63;;;;;;;20.94;74.78;102147.69;20957523;28;20070;-71
2023/06/24 00:48:17;;;;;;;2.22;2.03;;;;;;;20.93;74.70;102149.56;20970115;28;20456;-71
2023/06/24 00:58:20;;;;;;;3.03;2.45;;;;;;;20.90;74.65;102141.69;20908134;28;20072;-71
2023/06/24 01:08:22;;;;;;;2.87;2.67;;;;;;;20.88;74.63;102143.69;20954565;28;20504;-71
2023/06/24 01:18:35;;;;;;;2.38;2.17;;;;;;;20.87;74.65;102136.53;20982182;28;20072;-71
2023/06/24 01:28:56;;;;;;;3.33;2.38;;;;;;;20.87;74.45;102141.94;20921917;28;20049;-71
2023/06/24 01:39:02;;;;;;;2.70;2.50;;;;;;;20.86;74.36;102132.13;20937232;28;20563;-71
2023/06/24 01:49:04;;;;;;;3.00;2.70;;;;;;;20.84;74.33;102126.81;20964508;28;20056;-71
2023/06/24 01:59:07;;;;;;;2.53;2.33;;;;;;;20.82;74.09;102114.41;20960335;28;20080;-71
2023/06/24 02:09:10;;;;;;;2.55;2.35;;;;;;;20.82;74.14;102117.13;20931714;28;20051;-71
2023/06/24 02:19:12;;;;;;;2.65;2.45;;;;;;;20.81;74.07;102107.28;20951701;28;20048;-71
2023/06/24 02:29:14;;;;;;;2.90;2.70;;;;;;;20.79;73.91;102098.44;20922929;28;20044;-71
2023/06/24 02:39:15;;;;;;;2.80;2.50;;;;;;;20.78;73.93;102099.38;20963132;28;20677;-71
2023/06/24 02:49:18;;;;;;;3.00;2.70;;;;;;;20.72;73.74;102079.94;20959018;28;20059;-71
2023/06/24 02:59:22;;;;;;;2.47;2.28;;;;;;;20.77;73.76;102097.63;20927858;28;20098;-71
2023/06/24 03:09:26;;;;;;;3.25;2.70;;;;;;;20.76;73.65;102101.31;20946440;28;20527;-71
2023/06/24 03:19:29;;;;;;;2.63;2.43;;;;;;;20.76;73.52;102106.72;20945426;28;20076;-71
2023/06/24 03:29:31;;;;;;;3.00;2.70;;;;;;;20.74;73.59;102104.19;20959536;28;20427;-71
2023/06/24 03:39:43;;;;;;;2.67;2.42;;;;;;;20.73;73.53;102097.88;20930252;28;20052;-71
2023/06/24 03:49:45;;;;;;;3.10;2.80;;;;;;;20.72;73.52;102100.72;20949180;28;20410;-71
2023/06/24 03:59:48;;;;;;;2.95;2.65;;;;;;;20.70;73.53;102102.72;20918761;28;20045;-71
2023/06/24 04:09:49;;;;;;;2.75;2.55;;;;;;;20.68;73.52;102105.53;20958671;28;20052;-71
2023/06/24 04:19:51;;;;;;;3.20;2.90;;;;;;;20.67;73.54;102111.06;21065285;28;20064;-71
2023/06/24 04:29:53;;;;;;;3.28;2.30;;;;;;;20.64;73.73;102100.50;21032545;28;20079;-71
2023/06/24 04:39:55;;;;;;;2.72;2.53;;;;;;;20.62;73.85;102095.22;21048613;28;20097;-71
2023/06/24 04:49:57;;;;;;;3.20;2.55;;;;;;;20.66;74.06;102114.78;21066589;28;20044;-71
2023/06/24 04:59:58;;;;;;;3.10;2.65;;;;;;;20.66;74.22;102110.19;20989613;28;20501;-71
2023/06/24 05:10:00;;;;;;;2.70;2.50;;;;;;;20.66;74.58;102129.13;20993586;28;20056;-71
2023/06/24 05:20:03;;;;;;;3.88;2.80;;;;;;;20.67;74.65;102136.28;20974995;28;20048;-71
2023/06/24 05:30:05;;;;;;;3.10;2.80;;;;;;;20.67;74.81;102124.59;20991303;28;20057;-71
2023/06/24 05:40:07;;;;;;;3.20;2.90;;;;;;;20.68;75.07;102126.31;20989110;28;20052;-71
2023/06/24 05:50:12;;;;;;;3.65;3.22;;;;;;;20.67;75.40;102109.22;20997799;28;20475;-71
2023/06/24 06:00:14;;;;;;;3.50;3.20;;;;;;;20.70;75.57;102113.53;21073223;28;20382;-71
2023/06/24 06:10:21;;;;;;;3.95;3.35;;;;;;;20.70;75.96;102106.25;20975385;28;20093;-71
2023/06/24 06:20:22;;;;;;;3.45;3.15;;;;;;;20.70;76.08;102106.25;20983534;28;20076;-71
2023/06/24 06:30:24;;;;;;;4.28;3.88;;;;;;;20.69;76.51;102101.00;20969456;28;20659;-71
2023/06/24 06:40:28;;;;;;;3.60;3.30;;;;;;;20.72;76.61;102098.03;20946603;28;20044;-69
2023/06/24 06:50:29;;;;;;;2.50;2.30;;;;;;;20.75;77.33;102105.00;20967317;28;20045;-69
2023/06/24 07:00:31;;;;;;;4.15;3.33;;;;;;;20.75;77.52;102097.78;20924564;28;20053;-69
2023/06/24 07:10:33;;;;;;;4.22;3.58;;;;;;;20.78;77.83;102112.91;20951825;28;20050;-69
2023/06/24 07:20:34;;;;;;;4.30;3.90;;;;;;;20.80;78.34;102108.25;20946506;28;20424;-69
2023/06/24 07:30:36;;;;;;;3.83;3.20;;;;;;;20.83;78.30;102113.41;20941212;28;20075;-69
2023/06/24 07:40:38;;;;;;;3.60;2.97;;;;;;;20.86;78.43;102108.59;20950216;28;20559;-69
2023/06/24 07:50:39;;;;;;;3.50;3.20;;;;;;;20.90;78.92;102106.50;20934734;28;20448;-69
2023/06/24 08:00:42;;;;;;;3.47;3.17;;;;;;;20.97;78.92;102109.53;20918746;28;20532;-69
2023/06/24 08:10:44;;;;;;;3.90;2.88;;;;;;;21.00;78.83;102104.75;20945764;28;20458;-69
2023/06/24 08:20:45;;;;;;;3.45;2.97;;;;;;;21.11;78.41;102105.69;20931178;28;20066;-73
2023/06/24 08:30:47;;;;;;;3.50;3.17;;;;;;;21.21;78.18;102101.25;20935768;28;20071;-70
2023/06/24 08:40:49;;;;;;;3.35;2.70;;;;;;;21.30;78.03;102088.75;20932312;28;20044;-70
2023/06/24 08:50:52;;;;;;;3.63;2.90;;;;;;;21.35;78.06;102108.19;20903547;28;20071;-70
2023/06/24 09:00:54;;;;;;;2.78;2.35;;;;;;;21.38;78.02;102102.50;20921796;28;21013;-70
2023/06/24 09:10:55;;;;;;;3.72;2.88;;;;;;;21.42;78.10;102092.28;20929797;28;20052;-70
2023/06/24 09:20:57;;;;;;;2.80;2.60;;;;;;;21.47;78.16;102098.16;20943992;28;20148;-66
2023/06/24 09:31:09;;;;;;;5.60;2.80;;;;;;;21.53;77.98;102094.91;20942798;28;20123;-68
2023/06/24 09:41:21;;;;;;;5.03;3.17;;;;;;;21.58;77.88;102081.00;20951796;28;20562;-70
2023/06/24 09:51:23;;;;;;;4.15;2.70;;;;;;;21.65;77.46;102076.78;20915759;28;20759;-67
2023/06/24 10:01:25;;;;;;;3.53;2.58;;;;;;;21.71;77.74;102064.56;20921584;28;20452;-66
2023/06/24 10:11:27;;;;;;;3.75;2.95;;;;;;;21.73;77.95;102057.16;20924179;28;20531;-67
2023/06/24 10:21:47;;;;;;;5.43;3.58;;;;;;;21.76;78.16;102056.88;20923633;28;20052;-67
2023/06/24 10:31:54;;;;;;;4.00;2.60;;;;;;;21.72;77.97;102040.03;20932562;28;20135;-67
2023/06/24 10:41:55;;;;;;;4.97;3.15;;;;;;;21.80;78.01;102047.50;20925132;28;20580;-66
2023/06/24 10:51:59;;;;;;;4.60;2.60;;;;;;;21.82;77.82;102050.94;20926773;28;20461;-68
2023/06/24 11:02:03;;;;;;;3.13;2.50;;;;;;;21.83;77.31;102052.66;20957945;28;20071;-66
2023/06/24 11:12:07;;;;;;;3.58;2.58;;;;;;;21.85;77.13;102039.81;20938303;28;20102;-66
2023/06/24 11:22:10;;;;;;;;;;;;;;;21.86;76.90;102038.81;20934992;28;20121;-67
2023/06/24 11:32:12;;;;;;;3.10;2.35;;;;;;;21.89;76.49;102037.69;20944351;28;19932;-68
2023/06/24 11:42:13;;;;;;;3.10;2.42;;;;;;;21.92;75.97;102031.13;20924000;28;20106;-68
2023/06/24 11:52:15;;;;;;;4.05;2.35;;;;;;;21.96;75.82;102019.91;20930896;28;20132;-69
2023/06/24 12:02:17;;;;;;;2.83;2.53;;;;;;;22.00;75.63;102015.91;20927220;28;20044;-68
2023/06/24 12:12:18;;;;;;;3.45;2.20;;;;;;;22.04;75.75;102008.34;20930334;28;20053;-65
2023/06/24 12:22:21;;;;;;;3.90;2.50;;;;;;;22.01;75.15;102004.06;20949671;28;20060;-67
2023/06/24 12:32:23;;;;;;;3.05;2.60;;;;;;;22.03;75.44;102006.63;20917064;28;20513;-68
2023/06/24 12:42:25;;;;;;;2.63;2.42;;;;;;;22.03;75.61;101979.50;20940394;28;20037;-66
2023/06/24 12:52:27;;;;;;;2.88;2.30;;;;;;;22.03;75.56;101984.94;20968773;28;20056;-65
2023/06/24 13:02:29;;;;;;;3.17;2.40;;;;;;;22.02;75.75;101985.94;20910338;28;20068;-64
2023/06/24 13:12:30;;;;;;;2.35;2.10;;;;;;;22.00;76.34;101988.78;20909941;28;20048;-66
2023/06/24 13:22:32;;;;;;;2.45;2.13;;;;;;;21.99;76.84;101999.75;20980789;28;20051;-66
2023/06/24 13:32:34;;;;;;;2.63;2.42;;;;;;;21.96;76.51;101984.66;20978662;28;20132;-66
2023/06/24 13:42:36;;;;;;;2.95;2.53;;;;;;;21.97;76.64;101982.78;20937687;28;20060;-64
2023/06/24 13:52:37;;;;;;;3.03;2.55;;;;;;;21.97;76.64;101980.94;20946886;28;20540;-65
2023/06/24 14:02:40;;;;;;;2.58;2.33;;;;;;;21.95;76.55;101972.09;20935918;28;20036;-65
2023/06/24 14:12:42;;;;;;;3.17;2.65;;;;;;;21.95;76.93;101977.50;20958019;28;20049;-66
2023/06/24 14:22:44;;;;;;;3.05;2.45;;;;;;;21.97;76.72;101974.66;20926037;28;20049;-65
2023/06/24 14:32:46;;;;;;;2.53;2.25;;;;;;;21.99;76.79;101975.38;20931447;28;20126;-67
2023/06/24 14:42:47;;;;;;;2.10;1.75;;;;;;;22.00;76.63;101967.09;20881852;28;20613;-67
2023/06/24 14:52:49;;;;;;;2.30;2.10;;;;;;;22.02;76.78;101969.66;20873031;28;20056;-67
2023/06/24 15:02:51;;;;;;;2.10;1.90;;;;;;;22.01;76.93;101962.53;20894587;28;20056;-66
2023/06/24 15:12:52;;;;;;;2.45;2.00;;;;;;;22.01;76.96;101951.69;20911359;28;20051;-69
2023/06/24 15:22:54;;;;;;;3.70;2.38;;;;;;;22.13;76.69;101950.59;20882374;28;20040;-65
2023/06/24 15:32:56;;;;;;;3.50;2.60;;;;;;;22.21;76.28;101952.59;20902102;28;20047;-66
2023/06/24 15:42:57;;;;;;;4.80;2.72;;;;;;;22.27;76.46;101951.19;20897406;28;20070;-67
2023/06/24 15:52:59;;;;;;;7.47;5.18;;;;;;;22.43;80.51;101939.78;20930236;28;20052;-72
2023/06/24 16:03:01;;;;;;;4.72;3.63;;;;;;;22.55;80.62;101938.69;20902792;28;20052;-75
2023/06/24 16:13:02;;;;;;;5.15;3.58;;;;;;;22.65;80.91;101941.41;20895861;28;20041;-70
2023/06/24 16:23:04;;;;;;;4.00;3.47;;;;;;;22.72;81.70;101937.09;20900066;28;20665;-66
2023/06/24 16:33:06;;;;;;;4.13;3.22;;;;;;;22.77;82.67;101935.81;20896157;28;20048;-67
2023/06/24 16:43:10;;;;;;;4.32;3.22;;;;;;;22.81;86.55;101927.25;20906273;28;20045;-68
2023/06/24 16:53:11;;;;;;;4.63;2.92;;;;;;;22.85;87.71;101933.22;20900184;28;20048;-68
2023/06/24 17:03:13;;;;;;;2.90;2.60;;;;;;;22.88;88.55;101927.50;20909219;28;20059;-69
2023/06/24 17:13:15;;;;;;;4.90;3.30;;;;;;;22.88;88.91;101933.81;20927409;28;20057;-71
2023/06/24 17:23:16;;;;;;;4.00;3.22;;;;;;;22.80;89.47;101928.25;20929716;28;20083;-71
2023/06/24 17:33:18;;;;;;;4.30;3.53;;;;;;;22.68;89.82;101924.81;20940127;28;20127;-70
2023/06/24 17:43:19;;;;;;;4.90;3.85;;;;;;;22.65;90.12;101932.38;20927075;28;20072;-68
2023/06/24 17:53:21;;;;;;;3.70;3.20;;;;;;;22.58;90.06;101938.38;20933046;28;20095;-68
2023/06/24 18:03:24;;;;;;;4.30;3.42;;;;;;;22.53;89.36;101928.94;20942328;28;20048;-69
2023/06/24 18:13:26;;;;;;;4.30;3.25;;;;;;;22.50;89.17;101932.81;20985543;28;20071;-63
2023/06/24 18:23:27;;;;;;;3.88;3.50;;;;;;;22.41;86.96;101929.06;20980717;28;20409;-64
2023/06/24 18:33:30;;;;;;;4.65;3.60;;;;;;;22.35;85.81;101921.50;20960553;28;20070;-63
2023/06/24 18:43:32;;;;;;;3.67;3.00;;;;;;;22.30;85.50;101918.34;20976522;28;20044;-64
2023/06/24 18:53:33;;;;;;;3.13;2.83;;;;;;;22.27;85.10;101913.22;20996092;28;20083;-64
2023/06/24 19:03:35;;;;;;;4.65;3.17;;;;;;;22.22;85.78;101908.19;20951420;28;20126;-64
2023/06/24 19:13:38;;;;;;;3.75;2.95;;;;;;;22.17;85.57;101902.34;20942097;28;20056;-64
2023/06/24 19:23:39;;;;;;;4.05;2.70;;;;;;;22.13;86.56;101901.78;20951288;28;20055;-64
2023/06/24 19:33:41;;;;;;;3.40;3.10;;;;;;;22.10;86.50;101907.47;20926391;28;20132;-64
2023/06/24 19:43:47;;;;;;;3.38;3.03;;;;;;;22.06;86.60;101916.88;20888270;28;20045;-64
2023/06/24 19:53:49;;;;;;;3.40;3.10;;;;;;;22.01;86.72;101902.88;20987882;28;20110;-64
2023/06/24 20:03:51;;;;;;;3.85;3.20;;;;;;;22.00;86.87;101910.16;20952846;28;20044;-64
2023/06/24 20:13:52;;;;;;;3.50;3.20;;;;;;;21.97;86.57;101917.72;20985633;28;20049;-64
2023/06/24 20:23:54;;;;;;;3.20;2.90;;;;;;;21.94;86.38;101909.84;21049452;28;20101;-64
2023/06/24 20:33:55;;;;;;;5.07;3.85;;;;;;;21.91;86.29;101912.84;20996373;28;20049;-64
2023/06/24 20:43:58;;;;;;;3.30;3.00;;;;;;;21.88;86.10;101911.28;20981813;28;20041;-64
2023/06/24 20:54:00;;;;;;;3.85;2.90;;;;;;;21.85;86.44;101909.69;21056178;28;20481;-64
2023/06/24 21:04:01;;;;;;;3.40;3.08;;;;;;;21.83;86.33;101906.28;21066663;28;20048;-64
2023/06/24 21:14:03;;;;;;;3.30;2.97;;;;;;;21.82;85.98;101914.53;21066514;28;20060;-64
2023/06/24 21:24:06;;;;;;;3.40;3.05;;;;;;;21.79;85.87;101910.25;21066076;28;20773;-64
2023/06/24 21:34:10;;;;;;;3.53;3.20;;;;;;;21.77;85.96;101906.81;21065705;28;20084;-64
2023/06/24 21:44:12;;;;;;;3.55;3.25;;;;;;;21.75;85.44;101903.41;21032713;28;20053;-64
2023/06/24 21:54:14;;;;;;;3.40;3.10;;;;;;;21.74;85.45;101901.69;20989451;28;20084;-64
2023/06/24 22:04:15;;;;;;;3.80;3.00;;;;;;;21.71;85.24;101891.13;20975799;28;20431;-64
2023/06/24 22:14:17;;;;;;;3.50;3.20;;;;;;;21.69;85.16;101887.69;20895636;28;20048;-64
2023/06/24 22:24:19;;;;;;;3.67;3.35;;;;;;;21.67;85.17;101886.97;20894453;28;20084;-64
2023/06/24 22:34:20;;;;;;;3.75;3.42;;;;;;;21.64;84.88;101884.50;20893786;28;20067;-64
2023/06/24 22:44:22;;;;;;;4.32;3.65;;;;;;;21.62;84.90;101891.88;20937711;28;20398;-64
2023/06/24 22:54:24;;;;;;;4.63;3.80;;;;;;;21.59;84.87;101887.63;21060644;28;20056;-64
2023/06/24 23:04:26;;;;;;;3.67;3.35;;;;;;;21.57;84.50;101886.91;20972910;28;20052;-64
2023/06/24 23:14:31;;;;;;;4.32;3.83;;;;;;;21.54;84.45;101879.03;20989554;28;20056;-64
2023/06/24 23:24:36;;;;;;;3.72;3.22;;;;;;;21.52;84.13;101870.19;20972121;28;20398;-64
2023/06/24 23:34:39;;;;;;;3.58;3.28;;;;;;;21.47;84.30;101867.88;20954745;28;20075;-64
2023/06/24 23:44:40;;;;;;;3.88;3.42;;;;;;;21.48;83.95;101864.19;21011405;28;20420;-64
2023/06/24 23:54:42;;;;;;;3.60;3.30;;;;;;;21.46;84.18;101849.06;21036615;28;20044;-64
